• Join FlightAware (Why Join?)
  • Login
  • US Flag 
05:27AM EST


 

Airport Tracker/Info


-or-


 

Live Flight TrackerFlight Track Log ✈ OAE606 ✈ 30-Apr-2013 ✈ RJAA / NRT - PHNL

Flight Track Log - Related Links

Times and Time Zones

All times are in EDT time to prevent confusion due to time zone crossing. See the OAE606 flight status page for this flight to view local times or setup timezone preferences in your user account.

Time Position Orientation Groundspeed Altitude Reporting Facility
EDT Latitude Longitude Course Direction KTS MPH feet Rate Location/Type
07:03AM 35.7230 140.3760 151° Southeast 181 208 2,100  Level FlightAware
07:04AM 35.7020 140.3900 152° Southeast 227 261 2,600 1,740 Climbing FlightAware
07:04AM 35.6730 140.4110 150° Southeast 258 297 3,700 2,460 Climbing FlightAware
07:05AM 35.6470 140.4300 149° Southeast 275 316 4,900 2,820 Climbing FlightAware
07:05AM 35.6310 140.4420 149° Southeast 281 323 5,600 2,760 Climbing FlightAware
07:05AM 35.6000 140.4630 151° Southeast 292 336 7,000 3,120 Climbing FlightAware
07:06AM 35.5650 140.4880 150° Southeast 302 348 8,500 2,400 Climbing FlightAware
07:06AM 35.5320 140.5220 140° Southeast 323 372 9,200 840 Climbing FlightAware
07:07AM 35.5200 140.5650 109° East 321 369 9,300 60 Climbing FlightAware
07:07AM 35.5150 140.6170 97° East 315 362 9,300  Level FlightAware
07:08AM 35.5110 140.6710 95° East 323 372 9,300  Level FlightAware
07:08AM 35.5070 140.7110 97° East 322 371 9,300  Level FlightAware
07:09AM 35.5010 140.7680 97° East 324 373 9,300 300 Level FlightAware
07:09AM 35.4950 140.8230 98° East 322 371 9,600 1,200 Climbing FlightAware
07:10AM 35.4890 140.8900 96° East 351 404 10,700 1,800 Climbing FlightAware
07:11AM 35.4790 140.9830 97° East 393 452 12,000 2,040 Climbing FlightAware
07:11AM 35.4720 141.0930 94° East 435 501 13,600 2,520 Climbing FlightAware
07:12AM 35.4680 141.1970 93° East 449 517 15,600 2,760 Climbing FlightAware
07:13AM 35.4640 141.3280 92° East 461 531 17,800 2,220 Climbing FlightAware
07:14AM 35.4600 141.4550 92° East 493 567 19,300 1,920 Climbing FlightAware
07:15AM 35.4540 141.6120 93° East 511 588 21,200 1,860 Climbing FlightAware
07:15AM 35.4500 141.7180 93° East 528 608 22,300 1,260 Climbing FlightAware
07:16AM 35.4460 141.8700 92° East 536 617 23,200 1,920 Climbing FlightAware
07:17AM 35.4380 142.0390 93° East 558 642 25,500 2,460 Climbing FlightAware
07:17AM 35.4330 142.1550 93° East 573 659 26,500 1,800 Climbing FlightAware
07:18AM 35.4280 142.2910 93° East 573 659 28,100 2,160 Climbing FlightAware
07:19AM 35.4220 142.4390 93° East 570 656 29,800 2,280 Climbing FlightAware
07:20AM 35.4170 142.5740 93° East 568 654 31,200 1,860 Climbing FlightAware
07:20AM 35.4110 142.7100 93° East 565 650 32,500 1,080 Climbing FlightAware
07:21AM 35.4040 142.8890 93° East 564 649 33,000  Climbing FlightAware
07:22AM 35.3980 143.0250 93° East 33,000  Level FlightAware
07:25AM 35.3056 143.4631 104° East  Level FlightAware Approximate
07:26AM 35.2677 143.6405 105° East  Level FlightAware Approximate
07:27AM 35.2343 143.8197 87° East  Level FlightAware Approximate
07:28AM 35.2432 144.0026 87° East  Level FlightAware Approximate
07:29AM 35.2518 144.1855 87° East  Level FlightAware Approximate
07:30AM 35.2601 144.3685 87° East  Level FlightAware Approximate
07:31AM 35.2681 144.5515 87° East  Level FlightAware Approximate
07:32AM 35.2759 144.7345 87° East  Level FlightAware Approximate
07:33AM 35.2834 144.9176 87° East  Level FlightAware Approximate
07:34AM 35.2906 145.1007 87° East  Level FlightAware Approximate
07:35AM 35.2976 145.2838 87° East  Level FlightAware Approximate
07:36AM 35.3033 145.4670 88° East  Level FlightAware Approximate
07:37AM 35.3083 145.6503 88° East  Level FlightAware Approximate
07:38AM 35.3130 145.8336 88° East  Level FlightAware Approximate
07:39AM 35.3146 146.0168 94° East  Level FlightAware Approximate
07:40AM 35.3031 146.1996 94° East  Level FlightAware Approximate
07:41AM 35.2912 146.3824 94° East  Level FlightAware Approximate
07:42AM 35.2792 146.5651 95° East  Level FlightAware Approximate
07:43AM 35.2668 146.7477 95° East  Level FlightAware Approximate
07:44AM 35.2542 146.9303 95° East  Level FlightAware Approximate
07:45AM 35.2413 147.1129 95° East  Level FlightAware Approximate
07:46AM 35.2281 147.2954 95° East  Level FlightAware Approximate
07:47AM 35.2146 147.4778 95° East  Level FlightAware Approximate
07:48AM 35.2009 147.6602 95° East  Level FlightAware Approximate
07:49AM 35.1869 147.8425 95° East  Level FlightAware Approximate
07:50AM 35.1726 148.0247 95° East  Level FlightAware Approximate
07:51AM 35.1581 148.2069 96° East  Level FlightAware Approximate
07:52AM 35.1432 148.3890 96° East  Level FlightAware Approximate
07:53AM 35.1282 148.5710 96° East  Level FlightAware Approximate
07:54AM 35.1128 148.7530 96° East  Level FlightAware Approximate
07:55AM 35.0971 148.9349 96° East  Level FlightAware Approximate
07:56AM 35.0812 149.1167 96° East  Level FlightAware Approximate
07:57AM 35.0650 149.2985 96° East  Level FlightAware Approximate
07:58AM 35.0486 149.4802 96° East  Level FlightAware Approximate
07:59AM 35.0319 149.6618 96° East  Level FlightAware Approximate
08:00AM 35.0149 149.8434 96° East  Level FlightAware Approximate
08:01AM 34.9962 150.0246 101° East  Level FlightAware Approximate
08:02AM 34.9682 150.2039 101° East  Level FlightAware Approximate
08:03AM 34.9399 150.3832 101° East  Level FlightAware Approximate
08:04AM 34.9113 150.5624 101° East  Level FlightAware Approximate
08:05AM 34.8825 150.7414 101° East  Level FlightAware Approximate
08:06AM 34.8535 150.9203 101° East  Level FlightAware Approximate
08:07AM 34.8241 151.0991 101° East  Level FlightAware Approximate
08:08AM 34.7945 151.2777 101° East  Level FlightAware Approximate
08:09AM 34.7646 151.4563 101° East  Level FlightAware Approximate
08:10AM 34.7345 151.6346 102° East  Level FlightAware Approximate
08:11AM 34.7042 151.8129 102° East  Level FlightAware Approximate
08:12AM 34.6735 151.9910 102° East  Level FlightAware Approximate
08:13AM 34.6426 152.1690 102° East  Level FlightAware Approximate
08:14AM 34.6115 152.3469 102° East  Level FlightAware Approximate
08:15AM 34.5801 152.5246 102° East  Level FlightAware Approximate
08:16AM 34.5484 152.7022 102° East  Level FlightAware Approximate
08:17AM 34.5164 152.8797 102° East  Level FlightAware Approximate
08:18AM 34.4843 153.0570 102° East  Level FlightAware Approximate
08:19AM 34.4518 153.2342 102° East  Level FlightAware Approximate
08:20AM 34.4191 153.4112 103° East  Level FlightAware Approximate
08:21AM 34.3862 153.5881 103° East  Level FlightAware Approximate
08:22AM 34.3530 153.7649 103° East  Level FlightAware Approximate
08:23AM 34.3195 153.9415 103° East  Level FlightAware Approximate
08:24AM 34.2858 154.1180 103° East  Level FlightAware Approximate
08:25AM 34.2519 154.2944 103° East  Level FlightAware Approximate
08:26AM 34.2176 154.4706 103° East  Level FlightAware Approximate
08:27AM 34.1832 154.6466 103° East  Level FlightAware Approximate
08:28AM 34.1484 154.8225 103° East  Level FlightAware Approximate
08:29AM 34.1135 154.9983 103° East  Level FlightAware Approximate
08:30AM 34.0783 155.1739 104° East  Level FlightAware Approximate
08:31AM 34.0428 155.3494 104° East  Level FlightAware Approximate
08:32AM 34.0071 155.5247 104° East  Level FlightAware Approximate
08:33AM 33.9711 155.6999 104° East  Level FlightAware Approximate
08:34AM 33.9349 155.8749 104° East  Level FlightAware Approximate
08:35AM 33.8984 156.0498 104° East  Level FlightAware Approximate
08:36AM 33.8617 156.2245 104° East  Level FlightAware Approximate
08:37AM 33.8247 156.3991 104° East  Level FlightAware Approximate
08:38AM 33.7876 156.5735 104° East  Level FlightAware Approximate
08:39AM 33.7501 156.7478 104° East  Level FlightAware Approximate
08:40AM 33.7124 156.9219 105° East  Level FlightAware Approximate
08:41AM 33.6745 157.0959 105° East  Level FlightAware Approximate
08:42AM 33.6363 157.2697 105° East  Level FlightAware Approximate
08:43AM 33.5979 157.4434 105° East  Level FlightAware Approximate
08:44AM 33.5592 157.6169 105° East  Level FlightAware Approximate
08:45AM 33.5203 157.7903 105° East  Level FlightAware Approximate
08:46AM 33.4812 157.9635 105° East  Level FlightAware Approximate
08:47AM 33.4418 158.1365 105° East  Level FlightAware Approximate
08:48AM 33.4021 158.3094 105° East  Level FlightAware Approximate
08:49AM 33.3623 158.4821 105° East  Level FlightAware Approximate
08:50AM 33.3222 158.6546 105° East  Level FlightAware Approximate
08:51AM 33.2818 158.8271 106° East  Level FlightAware Approximate
08:52AM 33.2412 158.9993 106° East  Level FlightAware Approximate
08:53AM 33.2004 159.1714 106° East  Level FlightAware Approximate
08:54AM 33.1594 159.3433 106° East  Level FlightAware Approximate
08:55AM 33.1181 159.5151 106° East  Level FlightAware Approximate
08:56AM 33.0765 159.6867 106° East  Level FlightAware Approximate
08:57AM 33.0348 159.8581 106° East  Level FlightAware Approximate
08:58AM 32.9952 160.0301 101° East  Level FlightAware Approximate
08:59AM 32.9672 160.2053 101° East  Level FlightAware Approximate
09:00AM 32.9388 160.3804 101° East  Level FlightAware Approximate
09:01AM 32.9103 160.5554 101° East  Level FlightAware Approximate
09:02AM 32.8815 160.7303 101° East  Level FlightAware Approximate
09:03AM 32.8525 160.9051 101° East  Level FlightAware Approximate
09:04AM 32.8232 161.0797 101° East  Level FlightAware Approximate
09:05AM 32.7937 161.2543 101° East  Level FlightAware Approximate
09:06AM 32.7639 161.4287 101° East  Level FlightAware Approximate
09:07AM 32.7339 161.6030 102° East  Level FlightAware Approximate
09:08AM 32.7037 161.7771 102° East  Level FlightAware Approximate
09:09AM 32.6732 161.9512 102° East  Level FlightAware Approximate
09:10AM 32.6424 162.1252 102° East  Level FlightAware Approximate
09:11AM 32.6115 162.2990 102° East  Level FlightAware Approximate
09:12AM 32.5803 162.4727 102° East  Level FlightAware Approximate
09:13AM 32.5488 162.6463 102° East  Level FlightAware Approximate
09:14AM 32.5171 162.8197 102° East  Level FlightAware Approximate
09:15AM 32.4852 162.9931 102° East  Level FlightAware Approximate
09:16AM 32.4531 163.1663 102° East  Level FlightAware Approximate
09:17AM 32.4207 163.3394 102° East  Level FlightAware Approximate
09:18AM 32.3880 163.5124 103° East  Level FlightAware Approximate
09:19AM 32.3552 163.6852 103° East  Level FlightAware Approximate
09:20AM 32.3221 163.8579 103° East  Level FlightAware Approximate
09:21AM 32.2887 164.0305 103° East  Level FlightAware Approximate
09:22AM 32.2552 164.2030 103° East  Level FlightAware Approximate
09:23AM 32.2214 164.3753 103° East  Level FlightAware Approximate
09:24AM 32.1873 164.5475 103° East  Level FlightAware Approximate
09:25AM 32.1530 164.7196 103° East  Level FlightAware Approximate
09:26AM 32.1185 164.8916 103° East  Level FlightAware Approximate
09:27AM 32.0842 165.0635 103° East  Level FlightAware Approximate
09:28AM 32.0500 165.2354 103° East  Level FlightAware Approximate
09:29AM 32.0156 165.4072 103° East  Level FlightAware Approximate
09:30AM 31.9810 165.5788 103° East  Level FlightAware Approximate
09:31AM 31.9461 165.7504 103° East  Level FlightAware Approximate
09:32AM 31.9111 165.9218 104° East  Level FlightAware Approximate
09:33AM 31.8758 166.0930 104° East  Level FlightAware Approximate
09:34AM 31.8402 166.2641 104° East  Level FlightAware Approximate
09:35AM 31.8044 166.4352 104° East  Level FlightAware Approximate
09:36AM 31.7684 166.6060 104° East  Level FlightAware Approximate
09:37AM 31.7322 166.7768 104° East  Level FlightAware Approximate
09:38AM 31.6958 166.9474 104° East  Level FlightAware Approximate
09:39AM 31.6591 167.1178 104° East  Level FlightAware Approximate
09:40AM 31.6222 167.2882 104° East  Level FlightAware Approximate
09:41AM 31.5851 167.4584 104° East  Level FlightAware Approximate
09:42AM 31.5477 167.6284 104° East  Level FlightAware Approximate
09:43AM 31.5101 167.7983 105° East  Level FlightAware Approximate
09:44AM 31.4723 167.9681 105° East  Level FlightAware Approximate
09:45AM 31.4343 168.1378 105° East  Level FlightAware Approximate
09:46AM 31.3960 168.3073 105° East  Level FlightAware Approximate
09:47AM 31.3575 168.4767 105° East  Level FlightAware Approximate
09:48AM 31.3188 168.6459 105° East  Level FlightAware Approximate
09:49AM 31.2799 168.8150 105° East  Level FlightAware Approximate
09:50AM 31.2408 168.9839 105° East  Level FlightAware Approximate
09:50AM 31.0000 170.0000 100° East 543 625 35,000  Level Oakland Oceanic (ODAPS)
09:51AM 31.2014 169.1527 105° East  Level FlightAware Approximate
09:52AM 31.1618 169.3214 105° East  Level FlightAware Approximate
09:53AM 31.1220 169.4899 105° East  Level FlightAware Approximate
09:54AM 31.0820 169.6583 105° East  Level FlightAware Approximate
09:55AM 31.0417 169.8266 106° East  Level FlightAware Approximate
09:56AM 30.7738 171.3788 101° East 543 625 35,000  Level FlightAware Transoceanic
09:57AM 30.7445 171.5507 101° East 543 625 35,000  Level FlightAware Transoceanic
09:58AM 30.7150 171.7225 101° East 543 625 35,000  Level FlightAware Transoceanic
09:59AM 30.6853 171.8942 101° East 543 625 35,000  Level FlightAware Transoceanic
10:00AM 30.6553 172.0658 102° East 543 625 35,000  Level FlightAware Transoceanic
10:01AM 30.6251 172.2372 102° East 543 625 35,000  Level FlightAware Transoceanic
10:02AM 30.5947 172.4086 102° East 543 625 35,000  Level FlightAware Transoceanic
10:03AM 30.5640 172.5798 102° East 543 625 35,000  Level FlightAware Transoceanic
10:04AM 30.5331 172.7510 102° East 543 625 35,000  Level FlightAware Transoceanic
10:05AM 30.5021 172.9220 102° East 543 625 35,000  Level FlightAware Transoceanic
10:06AM 30.4707 173.0930 102° East 543 625 35,000  Level FlightAware Transoceanic
10:07AM 30.4392 173.2638 102° East 543 625 35,000  Level FlightAware Transoceanic
10:08AM 30.4074 173.4345 102° East 543 625 35,000  Level FlightAware Transoceanic
10:09AM 30.3754 173.6051 102° East 543 625 35,000  Level FlightAware Transoceanic
10:10AM 30.3432 173.7755 102° East 543 625 35,000  Level FlightAware Transoceanic
10:11AM 30.3108 173.9459 102° East 543 625 35,000  Level FlightAware Transoceanic
10:12AM 30.2782 174.1162 103° East 543 625 35,000  Level FlightAware Transoceanic
10:13AM 30.2453 174.2863 103° East 543 625 35,000  Level FlightAware Transoceanic
10:14AM 30.2122 174.4563 103° East 543 625 35,000  Level FlightAware Transoceanic
10:15AM 30.1789 174.6262 103° East 543 625 35,000  Level FlightAware Transoceanic
10:16AM 30.1454 174.7960 103° East 543 625 35,000  Level FlightAware Transoceanic
10:17AM 30.1116 174.9657 103° East 543 625 35,000  Level FlightAware Transoceanic
10:18AM 30.0777 175.1353 103° East 543 625 35,000  Level FlightAware Transoceanic
10:19AM 30.0435 175.3047 103° East 543 625 35,000  Level FlightAware Transoceanic
10:20AM 30.0091 175.4741 103° East 543 625 35,000  Level FlightAware Transoceanic
10:21AM 29.9745 175.6433 103° East 543 625 35,000  Level FlightAware Transoceanic
10:22AM 29.9396 175.8124 103° East 543 625 35,000  Level FlightAware Transoceanic
10:23AM 29.9046 175.9814 103° East 543 625 35,000  Level FlightAware Transoceanic
10:24AM 29.8693 176.1502 104° East 543 625 35,000  Level FlightAware Transoceanic
10:25AM 29.8339 176.3189 104° East 543 625 35,000  Level FlightAware Transoceanic
10:26AM 29.7982 176.4876 104° East 543 625 35,000  Level FlightAware Transoceanic
10:27AM 29.7623 176.6561 104° East 543 625 35,000  Level FlightAware Transoceanic
10:28AM 29.7261 176.8244 104° East 543 625 35,000  Level FlightAware Transoceanic
10:29AM 29.6898 176.9927 104° East 543 625 35,000  Level FlightAware Transoceanic
10:30AM 29.6533 177.1608 104° East 543 625 35,000  Level FlightAware Transoceanic
10:31AM 29.6165 177.3288 104° East 543 625 35,000  Level FlightAware Transoceanic
10:32AM 29.5795 177.4967 104° East 543 625 35,000  Level FlightAware Transoceanic
10:33AM 29.5424 177.6645 104° East 543 625 35,000  Level FlightAware Transoceanic
10:34AM 29.5050 177.8321 104° East 543 625 35,000  Level FlightAware Transoceanic
10:35AM 29.4674 177.9996 104° East 543 625 35,000  Level FlightAware Transoceanic
10:36AM 29.4296 178.1670 105° East 543 625 35,000  Level FlightAware Transoceanic
10:37AM 29.3916 178.3343 105° East 543 625 35,000  Level FlightAware Transoceanic
10:38AM 29.3533 178.5014 105° East 543 625 35,000  Level FlightAware Transoceanic
10:39AM 29.3149 178.6685 105° East 543 625 35,000  Level FlightAware Transoceanic
10:40AM 29.2763 178.8353 105° East 543 625 35,000  Level FlightAware Transoceanic
10:41AM 29.2374 179.0021 105° East 543 625 35,000  Level FlightAware Transoceanic
10:42AM 29.1984 179.1687 105° East 543 625 35,000  Level FlightAware Transoceanic
10:43AM 29.1591 179.3353 105° East 543 625 35,000  Level FlightAware Transoceanic
10:44AM 29.1196 179.5016 105° East 543 625 35,000  Level FlightAware Transoceanic
10:45AM 29.0800 179.6679 105° East 543 625 35,000  Level FlightAware Transoceanic
10:46AM 29.0401 179.8340 105° East 543 625 35,000  Level FlightAware Transoceanic
10:47AM 29.0000 -180.0000 100° East 543 625 35,000  Level FlightAware Transoceanic
10:48AM 28.9743 -179.8263 100° East 543 625 35,000  Level FlightAware Transoceanic
10:48AM 29.0000 -180.0000 100° East 555 639 35,000  Level Oakland Oceanic (ODAPS)
10:49AM 28.9485 -179.6527 100° East 543 625 35,000  Level FlightAware Transoceanic
10:50AM 28.9223 -179.4792 100° East 543 625 35,000  Level FlightAware Transoceanic
10:51AM 28.8960 -179.3057 100° East 543 625 35,000  Level FlightAware Transoceanic
10:52AM 28.8695 -179.1324 100° East 543 625 35,000  Level FlightAware Transoceanic
10:53AM 28.8427 -178.9591 100° East 543 625 35,000  Level FlightAware Transoceanic
10:54AM 28.7885 -178.6129 100° East 555 639 35,000  Level FlightAware Transoceanic
10:55AM 28.7611 -178.4399 100° East 555 639 35,000  Level FlightAware Transoceanic
10:56AM 28.7334 -178.2670 100° East 555 639 35,000  Level FlightAware Transoceanic
10:57AM 28.7055 -178.0942 100° East 555 639 35,000  Level FlightAware Transoceanic
10:58AM 28.6775 -177.9215 101° East 555 639 35,000  Level FlightAware Transoceanic
10:59AM 28.6491 -177.7488 101° East 555 639 35,000  Level FlightAware Transoceanic
11:00AM 28.6206 -177.5763 101° East 555 639 35,000  Level FlightAware Transoceanic
11:01AM 28.5919 -177.4039 101° East 555 639 35,000  Level FlightAware Transoceanic
11:02AM 28.5629 -177.2315 101° East 555 639 35,000  Level FlightAware Transoceanic
11:03AM 28.5337 -177.0593 101° East 555 639 35,000  Level FlightAware Transoceanic
11:04AM 28.5043 -176.8871 101° East 555 639 35,000  Level FlightAware Transoceanic
11:05AM 28.4747 -176.7151 101° East 555 639 35,000  Level FlightAware Transoceanic
11:06AM 28.4449 -176.5432 101° East 555 639 35,000  Level FlightAware Transoceanic
11:07AM 28.4148 -176.3713 101° East 555 639 35,000  Level FlightAware Transoceanic
11:08AM 28.3845 -176.1995 101° East 555 639 35,000  Level FlightAware Transoceanic
11:09AM 28.3540 -176.0279 101° East 555 639 35,000  Level FlightAware Transoceanic
11:10AM 28.3234 -175.8563 102° East 555 639 35,000  Level FlightAware Transoceanic
11:11AM 28.2924 -175.6848 102° East 555 639 35,000  Level FlightAware Transoceanic
11:12AM 28.2613 -175.5135 102° East 555 639 35,000  Level FlightAware Transoceanic
11:13AM 28.2300 -175.3422 102° East 555 639 35,000  Level FlightAware Transoceanic
11:14AM 28.1984 -175.1711 102° East 555 639 35,000  Level FlightAware Transoceanic
11:15AM 28.1667 -175.0000 104° East 555 639 35,000  Level FlightAware Transoceanic
11:16AM 28.1307 -174.8316 104° East 555 639 35,000  Level FlightAware Transoceanic
11:16AM 28.1667 -175.0000 104° East 550 633 35,000  Level Oakland Oceanic (ODAPS)
11:17AM 28.0945 -174.6634 104° East 555 639 35,000  Level FlightAware Transoceanic
11:18AM 28.0581 -174.4953 104° East 555 639 35,000  Level FlightAware Transoceanic
11:19AM 28.0215 -174.3273 104° East 555 639 35,000  Level FlightAware Transoceanic
11:20AM 27.9848 -174.1593 104° East 555 639 35,000  Level FlightAware Transoceanic
11:21AM 27.9478 -173.9916 104° East 555 639 35,000  Level FlightAware Transoceanic
11:22AM 27.9106 -173.8239 104° East 550 633 35,000  Level FlightAware Transoceanic
11:23AM 27.8732 -173.6563 104° East 550 633 35,000  Level FlightAware Transoceanic
11:24AM 27.8356 -173.4889 104° East 550 633 35,000  Level FlightAware Transoceanic
11:25AM 27.7978 -173.3216 104° East 550 633 35,000  Level FlightAware Transoceanic
11:26AM 27.7598 -173.1543 104° East 550 633 35,000  Level FlightAware Transoceanic
11:27AM 27.7215 -172.9873 105° East 550 633 35,000  Level FlightAware Transoceanic
11:28AM 27.6831 -172.8203 105° East 550 633 35,000  Level FlightAware Transoceanic
11:29AM 27.6445 -172.6534 105° East 550 633 35,000  Level FlightAware Transoceanic
11:30AM 27.6057 -172.4867 105° East 550 633 35,000  Level FlightAware Transoceanic
11:31AM 27.5667 -172.3201 105° East 550 633 35,000  Level FlightAware Transoceanic
11:32AM 27.5275 -172.1536 105° East 550 633 35,000  Level FlightAware Transoceanic
11:33AM 27.4881 -171.9872 105° East 550 633 35,000  Level FlightAware Transoceanic
11:34AM 27.4485 -171.8209 105° East 550 633 35,000  Level FlightAware Transoceanic
11:35AM 27.4087 -171.6548 105° East 550 633 35,000  Level FlightAware Transoceanic
11:36AM 27.3687 -171.4888 105° East 550 633 35,000  Level FlightAware Transoceanic
11:37AM 27.3285 -171.3229 105° East 550 633 35,000  Level FlightAware Transoceanic
11:38AM 27.2882 -171.1571 105° East 550 633 35,000  Level FlightAware Transoceanic
11:39AM 27.2476 -170.9914 105° East 550 633 35,000  Level FlightAware Transoceanic
11:40AM 27.2068 -170.8259 106° East 550 633 35,000  Level FlightAware Transoceanic
11:41AM 27.1658 -170.6605 106° East 550 633 35,000  Level FlightAware Transoceanic
11:42AM 27.1246 -170.4952 106° East 550 633 35,000  Level FlightAware Transoceanic
11:43AM 27.0833 -170.3300 106° East 550 633 35,000  Level FlightAware Transoceanic
11:44AM 27.0417 -170.1649 106° East 550 633 35,000  Level FlightAware Transoceanic
11:45AM 27.0000 -170.0000 114° Southeast 550 633 35,000  Level FlightAware Transoceanic
11:46AM 26.9418 -169.8502 114° Southeast 550 633 35,000  Level FlightAware Transoceanic
11:47AM 26.8834 -169.7005 114° Southeast 550 633 35,000  Level FlightAware Transoceanic
11:48AM 26.8249 -169.5511 114° Southeast 550 633 35,000  Level FlightAware Transoceanic
11:49AM 26.7662 -169.4017 114° Southeast 550 633 35,000  Level FlightAware Transoceanic
11:49AM 27.0000 -170.0000 114° Southeast 536 617 35,000  Level Oakland Oceanic (ODAPS)
11:50AM 26.7073 -169.2525 114° Southeast 550 633 35,000  Level FlightAware Transoceanic
11:51AM 26.6483 -169.1035 114° Southeast 550 633 35,000  Level FlightAware Transoceanic
11:52AM 26.5891 -168.9546 114° Southeast 550 633 35,000  Level FlightAware Transoceanic
11:53AM 26.5298 -168.8059 114° Southeast 550 633 35,000  Level FlightAware Transoceanic
11:54AM 26.4704 -168.6573 114° Southeast 550 633 35,000  Level FlightAware Transoceanic
11:55AM 26.4107 -168.5089 114° Southeast 550 633 35,000  Level FlightAware Transoceanic
11:56AM 26.3975 -168.4760 114° Southeast 536 617 35,000  Level FlightAware Transoceanic
11:57AM 26.3363 -168.3244 114° Southeast 536 617 35,000  Level FlightAware Transoceanic
11:58AM 26.2750 -168.1731 114° Southeast 536 617 35,000  Level FlightAware Transoceanic
11:59AM 26.2136 -168.0219 114° Southeast 536 617 35,000  Level FlightAware Transoceanic
12:00PM 26.1519 -167.8708 114° Southeast 536 617 35,000  Level FlightAware Transoceanic
12:01PM 26.0902 -167.7200 115° Southeast 536 617 35,000  Level FlightAware Transoceanic
12:02PM 26.0282 -167.5692 115° Southeast 536 617 35,000  Level FlightAware Transoceanic
12:03PM 25.9662 -167.4187 115° Southeast 536 617 35,000  Level FlightAware Transoceanic
12:04PM 25.9039 -167.2683 115° Southeast 536 617 35,000  Level FlightAware Transoceanic
12:05PM 25.8415 -167.1180 115° Southeast 536 617 35,000  Level FlightAware Transoceanic
12:06PM 25.7789 -166.9680 115° Southeast 536 617 35,000  Level FlightAware Transoceanic
12:07PM 25.7162 -166.8180 115° Southeast 536 617 35,000  Level FlightAware Transoceanic
12:08PM 25.6534 -166.6682 115° Southeast 536 617 35,000  Level FlightAware Transoceanic
12:09PM 25.5904 -166.5186 115° Southeast 536 617 35,000  Level FlightAware Transoceanic
12:10PM 25.5272 -166.3692 115° Southeast 536 617 35,000  Level FlightAware Transoceanic
12:11PM 25.4639 -166.2199 115° Southeast 536 617 35,000  Level FlightAware Transoceanic
12:12PM 25.4004 -166.0708 115° Southeast 536 617 35,000  Level FlightAware Transoceanic
12:13PM 25.3368 -165.9218 115° Southeast 536 617 35,000  Level FlightAware Transoceanic
12:14PM 25.2730 -165.7729 115° Southeast 536 617 35,000  Level FlightAware Transoceanic
12:15PM 25.2091 -165.6243 115° Southeast 536 617 35,000  Level FlightAware Transoceanic
12:16PM 25.1451 -165.4758 116° Southeast 536 617 35,000  Level FlightAware Transoceanic
12:17PM 25.0809 -165.3274 116° Southeast 536 617 35,000  Level FlightAware Transoceanic
12:18PM 25.0165 -165.1792 116° Southeast 536 617 35,000  Level FlightAware Transoceanic
12:19PM 24.9520 -165.0312 116° Southeast 536 617 35,000  Level FlightAware Transoceanic
12:20PM 24.8873 -164.8833 116° Southeast 536 617 35,000  Level FlightAware Transoceanic
12:21PM 24.8225 -164.7355 116° Southeast 536 617 35,000  Level FlightAware Transoceanic
12:22PM 24.7576 -164.5880 116° Southeast 536 617 35,000  Level FlightAware Transoceanic
12:23PM 24.6925 -164.4405 116° Southeast 536 617 35,000  Level FlightAware Transoceanic
12:24PM 24.6273 -164.2933 116° Southeast 536 617 35,000  Level FlightAware Transoceanic
12:25PM 24.5619 -164.1462 116° Southeast 536 617 35,000  Level FlightAware Transoceanic
12:26PM 24.4964 -163.9992 116° Southeast 536 617 35,000  Level FlightAware Transoceanic
12:27PM 24.4307 -163.8524 116° Southeast 536 617 35,000  Level FlightAware Transoceanic
12:28PM 24.3649 -163.7057 116° Southeast 536 617 35,000  Level FlightAware Transoceanic
12:29PM 24.2990 -163.5592 116° Southeast 536 617 35,000  Level FlightAware Transoceanic
12:30PM 24.2329 -163.4129 116° Southeast 536 617 35,000  Level FlightAware Transoceanic
12:31PM 24.1667 -163.2667 112° Southeast 536 617 35,000  Level FlightAware Transoceanic
12:32PM 24.1146 -163.1258 112° Southeast 536 617 35,000  Level FlightAware Transoceanic
12:32PM 24.1167 -163.1333 112° Southeast 520 598 35,000  Level Honolulu Center
12:33PM 24.0624 -162.9850 112° Southeast 536 617 35,000  Level FlightAware Transoceanic
12:33PM 24.0500 -163.0000 119° Southeast 520 598 35,000  Level Honolulu Center
12:34PM 24.0100 -162.8443 112° Southeast 536 617 35,000  Level FlightAware Transoceanic
12:34PM 23.9833 -162.8500 116° Southeast 520 598 35,000  Level Honolulu Center
12:35PM 23.9576 -162.7037 112° Southeast 536 617 35,000  Level FlightAware Transoceanic
12:35PM 23.9000 -162.7333 128° Southeast 520 598 35,000  Level Honolulu Center
12:36PM 23.9050 -162.5633 112° Southeast 536 617 35,000  Level FlightAware Transoceanic
12:36PM 23.8333 -162.5833 116° Southeast 530 610 35,000  Level Honolulu Center
12:37PM 23.8523 -162.4229 112° Southeast 536 617 35,000  Level FlightAware Transoceanic
12:37PM 23.7667 -162.4500 119° Southeast 520 598 35,000  Level Honolulu Center
12:38PM 23.7994 -162.2827 112° Southeast 536 617 35,000  Level FlightAware Transoceanic
12:38PM 23.6833 -162.3167 124° Southeast 520 598 35,000  Level Honolulu Center
12:39PM 23.6167 -162.1833 119° Southeast 510 587 35,000  Level Honolulu Center
12:40PM 23.5500 -162.0500 119° Southeast 520 598 35,000  Level Honolulu Center
12:41PM 23.4667 -161.9167 124° Southeast 510 587 35,000  Level Honolulu Center
12:42PM 23.4000 -161.7833 119° Southeast 520 598 35,000  Level Honolulu Center
12:43PM 23.3333 -161.6833 126° Southeast 510 587 35,000  Level Honolulu Center
12:44PM 23.2500 -161.5167 119° Southeast 510 587 35,000  Level Honolulu Center
12:45PM 23.1667 -161.4000 128° Southeast 510 587 35,000  Level Honolulu Center
12:46PM 23.1000 -161.2667 119° Southeast 510 587 35,000  Level Honolulu Center
12:47PM 23.0167 -161.1333 124° Southeast 500 575 35,000  Level Honolulu Center
12:48PM 22.9500 -161.0000 118° Southeast 510 587 35,000  Level Honolulu Center
12:49PM 22.8667 -160.8667 124° Southeast 510 587 35,000  Level Honolulu Center
12:50PM 22.8000 -160.7333 118° Southeast 510 587 35,000 -120 Level Honolulu Center
12:56PM 22.3260 -160.0550 118° Southeast 511 588 34,500 -480 Descending FlightAware
12:57PM 22.2440 -159.9100 121° Southeast 500 575 31,900 -2,280 Descending FlightAware
12:58PM 22.1910 -159.8160 121° Southeast 485 558 30,400 -2,100 Descending FlightAware
12:59PM 22.1410 -159.7300 122° Southeast 476 548 29,000 -1,380 Descending FlightAware
01:00PM 22.0930 -159.6460 122° Southeast 476 548 28,400 -420 Descending FlightAware
01:00PM 22.0540 -159.5780 122° Southeast 476 548 28,400  Level FlightAware
01:01PM 22.0140 -159.5090 122° Southeast 476 548 28,400 -3,900 Level FlightAware
01:02PM 21.9600 -159.4100 120° Southeast 445 512 23,200 -4,440 Descending FlightAware
01:03PM 21.8930 -159.2930 122° Southeast 434 499 21,000 -2,160 Descending FlightAware
01:03PM 21.8600 -159.2330 121° Southeast 430 495 19,800 -2,220 Descending FlightAware
01:04PM 21.8050 -159.1350 121° Southeast 422 486 17,900 -1,560 Descending FlightAware
01:05PM 21.7610 -159.0560 121° Southeast 417 480 17,200 -480 Descending FlightAware
01:06PM 21.7270 -158.9960 121° Southeast 417 480 17,200  Level FlightAware
01:06PM 21.6850 -158.9200 121° Southeast 417 480 17,200  Level FlightAware
01:07PM 21.6510 -158.8600 121° Southeast 417 480 17,200  Level FlightAware
01:08PM 21.6170 -158.7990 121° Southeast 417 480 17,200  Level FlightAware
01:08PM 21.5830 -158.7390 121° Southeast 417 480 17,200 -4,800 Level FlightAware
01:09PM 21.5000 -158.5500 121° Southeast 300 345 9,800 -4,560 Descending Honolulu Center
01:10PM 21.4500 -158.4833 129° Southeast 280 322 8,700 -1,200 Descending Honolulu Center
01:11PM 21.4167 -158.4167 118° Southeast 270 311 7,400 -1,260 Descending Honolulu Center
01:12PM 21.3833 -158.3500 118° Southeast 270 311 6,200 -1,260 Descending Honolulu Center
01:13PM 21.3500 -158.2833 118° Southeast 260 299 4,900 -1,260 Descending Honolulu Center
01:14PM 21.3167 -158.2167 118° Southeast 240 276 3,700 -960 Descending Honolulu Center
01:15PM 21.3167 -158.1500 90° East 220 253 3,000 -480 Descending Honolulu Center
01:16PM 21.3167 -158.0833 90° East 190 219 2,800 -600 Descending Honolulu Center
01:17PM 21.3167 -158.0333 90° East 180 207 1,800 -1,020 Descending Honolulu Center